createdAt,value
2023-04-17T00:02:10.600Z,13.15
2023-04-17T00:04:38.304Z,11.25
2023-04-17T00:07:05.959Z,10.20
2023-04-17T00:09:33.125Z,12.05
2023-04-17T00:12:00.921Z,12.48
2023-04-17T00:14:28.241Z,11.45
2023-04-17T00:16:55.470Z,11.50
2023-04-17T00:19:22.842Z,11.48
2023-04-17T00:21:50.380Z,11.20
2023-04-17T00:24:17.717Z,11.00
2023-04-17T00:26:44.942Z,11.15
2023-04-17T00:29:12.404Z,11.40
2023-04-17T00:31:40.013Z,10.65
2023-04-17T00:34:07.191Z,9.52
2023-04-17T00:36:34.475Z,10.68
2023-04-17T00:39:01.790Z,11.02
2023-04-17T00:41:29.078Z,11.90
2023-04-17T00:43:56.334Z,9.90
2023-04-17T00:46:24.320Z,9.63
2023-04-17T00:48:51.599Z,10.63
2023-04-17T00:51:18.763Z,11.23
2023-04-17T00:53:46.584Z,10.75
2023-04-17T00:56:13.983Z,11.13
2023-04-17T00:58:41.414Z,10.32
2023-04-17T01:01:09.267Z,11.55
2023-04-17T01:03:36.769Z,11.63
2023-04-17T01:06:04.232Z,10.95
2023-04-17T01:08:39.982Z,11.95
2023-04-17T01:11:08.793Z,10.30
2023-04-17T01:13:44.422Z,9.60
2023-04-17T01:16:12.473Z,10.75
2023-04-17T01:18:39.829Z,10.27
2023-04-17T01:21:07.080Z,10.30
2023-04-17T01:23:51.947Z,10.90
2023-04-17T01:26:21.280Z,10.55
2023-04-17T01:28:56.328Z,10.88
2023-04-17T01:31:24.709Z,10.63
2023-04-17T01:33:53.176Z,10.05
2023-04-17T01:36:20.475Z,11.50
2023-04-17T01:38:47.695Z,10.63
2023-04-17T01:41:14.908Z,11.32
2023-04-17T01:43:43.917Z,11.35
2023-04-17T01:46:11.902Z,10.73
2023-04-17T01:48:39.281Z,13.57
2023-04-17T01:51:06.596Z,10.82
2023-04-17T01:53:34.545Z,9.93
2023-04-17T01:56:01.865Z,12.48
2023-04-17T01:58:30.419Z,11.23
2023-04-17T02:00:57.719Z,11.82
2023-04-17T02:03:25.155Z,9.80
2023-04-17T02:05:53.836Z,11.23
2023-04-17T02:08:21.436Z,10.27
2023-04-17T02:10:48.702Z,11.50
2023-04-17T02:13:16.203Z,10.68
2023-04-17T02:15:43.790Z,11.68
2023-04-17T02:18:11.088Z,11.65
2023-04-17T02:20:38.694Z,13.43
2023-04-17T02:23:06.869Z,13.45
2023-04-17T02:25:36.274Z,12.43
2023-04-17T02:28:04.140Z,12.73
2023-04-17T02:30:31.455Z,13.77
2023-04-17T02:32:59.451Z,13.55
2023-04-17T02:35:29.169Z,14.23
2023-04-17T02:37:57.887Z,12.52
2023-04-17T02:40:24.985Z,15.00
2023-04-17T02:42:59.288Z,11.43
2023-04-17T02:45:26.552Z,10.68
2023-04-17T02:47:54.358Z,10.98
2023-04-17T02:50:21.693Z,9.60
2023-04-17T02:55:32.843Z,10.23
2023-04-17T02:58:00.168Z,9.90
2023-04-17T03:00:27.921Z,10.90
2023-04-17T03:02:55.342Z,10.25
2023-04-17T03:05:23.326Z,11.27
2023-04-17T03:07:52.069Z,10.85
2023-04-17T03:10:19.654Z,10.88
2023-04-17T03:12:46.861Z,9.63
2023-04-17T03:15:14.190Z,10.07
2023-04-17T03:17:41.389Z,10.18
2023-04-17T03:20:09.336Z,11.77
2023-04-17T03:22:36.729Z,12.55
2023-04-17T03:25:05.885Z,11.60
2023-04-17T03:27:41.454Z,10.90
2023-04-17T03:30:09.761Z,12.95
2023-04-17T03:32:38.099Z,12.25
2023-04-17T03:35:05.655Z,12.30
2023-04-17T03:37:34.431Z,13.70
2023-04-17T03:40:02.201Z,12.07
2023-04-17T03:42:30.690Z,11.68
2023-04-17T03:44:59.955Z,13.43
2023-04-17T03:47:29.378Z,13.52
2023-04-17T03:49:57.476Z,12.63
2023-04-17T03:52:26.213Z,11.50
2023-04-17T03:54:58.038Z,12.65
2023-04-17T03:57:26.338Z,13.00
2023-04-17T03:59:54.162Z,13.15
2023-04-17T04:02:22.904Z,12.07
2023-04-17T04:04:51.298Z,12.48
2023-04-17T04:07:19.194Z,12.05
2023-04-17T04:09:46.404Z,15.00
2023-04-17T04:12:14.451Z,13.80
2023-04-17T04:14:44.888Z,13.50
2023-04-17T04:17:13.373Z,11.88
2023-04-17T04:19:41.056Z,11.48
2023-04-17T04:22:08.228Z,11.43
2023-04-17T04:24:42.734Z,9.38
2023-04-17T04:27:12.928Z,11.00
2023-04-17T04:29:40.548Z,11.13
2023-04-17T04:32:13.464Z,10.95
2023-04-17T04:34:44.580Z,11.02
2023-04-17T04:37:15.489Z,8.63
2023-04-17T04:39:47.141Z,8.57
2023-04-17T04:42:21.751Z,8.98
2023-04-17T04:45:15.956Z,7.95
2023-04-17T04:47:44.572Z,8.05
2023-04-17T04:50:12.524Z,6.88
2023-04-17T04:52:39.880Z,9.07
2023-04-17T04:55:15.707Z,8.55
2023-04-17T04:57:49.016Z,8.98
2023-04-17T05:00:18.028Z,8.98
2023-04-17T05:02:47.545Z,8.43
2023-04-17T05:05:16.685Z,8.45
2023-04-17T05:07:43.843Z,9.23
2023-04-17T05:10:14.805Z,9.05
2023-04-17T05:12:48.374Z,9.32
2023-04-17T05:15:16.728Z,8.15
2023-04-17T05:17:44.748Z,8.88
2023-04-17T05:20:15.301Z,7.45
2023-04-17T05:22:49.712Z,9.48
2023-04-17T05:25:17.073Z,8.48
2023-04-17T05:27:44.288Z,8.20
2023-04-17T05:30:13.035Z,6.88
2023-04-17T05:32:41.732Z,6.90
2023-04-17T05:35:22.454Z,8.30
2023-04-17T05:37:51.405Z,7.35
2023-04-17T05:40:18.658Z,7.90
2023-04-17T05:42:45.841Z,8.73
2023-04-17T05:45:13.664Z,6.95
2023-04-17T05:47:41.389Z,8.55
2023-04-17T05:50:09.172Z,7.40
2023-04-17T05:52:39.432Z,8.05
2023-04-17T05:55:09.450Z,8.03
2023-04-17T05:57:37.891Z,8.48
2023-04-17T06:00:10.574Z,8.63
2023-04-17T06:02:43.127Z,6.40
2023-04-17T06:05:16.367Z,8.45
2023-04-17T06:07:44.293Z,7.82
2023-04-17T06:10:11.612Z,9.98
2023-04-17T06:12:39.233Z,8.30
2023-04-17T06:15:10.028Z,8.07
2023-04-17T06:17:38.036Z,7.07
2023-04-17T06:20:09.640Z,7.50
2023-04-17T06:22:37.331Z,8.55
2023-04-17T06:25:04.702Z,8.18
2023-04-17T06:27:31.989Z,8.88
2023-04-17T06:30:00.456Z,9.13
2023-04-17T06:32:29.844Z,8.13
2023-04-17T06:34:59.390Z,7.78
2023-04-17T06:37:42.255Z,9.13
2023-04-17T06:40:12.107Z,9.38
2023-04-17T06:42:39.378Z,9.57
2023-04-17T06:45:11.492Z,10.50
2023-04-17T06:47:38.714Z,9.05
2023-04-17T06:50:06.384Z,10.52
2023-04-17T06:52:35.098Z,7.85
2023-04-17T06:55:02.510Z,9.48
2023-04-17T06:57:29.725Z,8.05
2023-04-17T06:59:56.910Z,9.10
2023-04-17T07:02:24.349Z,8.25
2023-04-17T07:04:53.223Z,9.30
2023-04-17T07:07:20.494Z,10.35
2023-04-17T07:09:48.212Z,10.10
2023-04-17T07:12:15.848Z,9.40
2023-04-17T07:14:43.151Z,10.48
2023-04-17T07:17:10.308Z,10.02
2023-04-17T07:19:38.633Z,9.15
2023-04-17T07:22:05.773Z,9.73
2023-04-17T07:24:36.220Z,9.82
2023-04-17T07:27:04.240Z,9.43
2023-04-17T07:29:31.673Z,10.75
2023-04-17T07:31:58.936Z,9.52
2023-04-17T07:34:26.188Z,9.75
2023-04-17T07:36:53.865Z,8.82
2023-04-17T07:39:21.355Z,10.20
2023-04-17T07:41:49.520Z,9.00
2023-04-17T07:44:16.797Z,9.18
2023-04-17T07:46:45.126Z,9.95
2023-04-17T07:49:12.669Z,9.30
2023-04-17T07:51:41.224Z,8.95
2023-04-17T07:54:08.651Z,10.10
2023-04-17T07:56:36.530Z,9.05
2023-04-17T07:59:04.640Z,8.85
2023-04-17T08:01:32.040Z,9.55
2023-04-17T08:03:59.796Z,8.82
2023-04-17T08:06:27.469Z,10.32
2023-04-17T08:08:54.731Z,9.73
2023-04-17T08:11:22.292Z,9.73
2023-04-17T08:13:50.052Z,11.00
2023-04-17T08:16:17.682Z,10.43
2023-04-17T08:18:45.377Z,10.52
2023-04-17T08:21:12.669Z,11.55
2023-04-17T08:23:40.765Z,10.60
2023-04-17T08:26:08.003Z,10.77
2023-04-17T08:28:35.391Z,10.52
2023-04-17T08:31:02.747Z,9.25
2023-04-17T08:33:29.936Z,10.00
2023-04-17T08:35:57.088Z,9.02
2023-04-17T08:38:24.549Z,9.68
2023-04-17T08:40:53.719Z,11.10
2023-04-17T08:43:22.002Z,9.52
2023-04-17T08:45:56.511Z,10.73
2023-04-17T08:48:24.383Z,10.82
2023-04-17T08:50:52.797Z,10.43
2023-04-17T08:53:20.472Z,10.35
2023-04-17T08:55:48.188Z,10.63
2023-04-17T08:58:15.525Z,8.70
2023-04-17T09:00:43.676Z,9.93
2023-04-17T09:03:12.284Z,10.68
2023-04-17T09:05:45.815Z,11.68
2023-04-17T09:08:17.152Z,10.70
2023-04-17T09:10:45.618Z,9.68
2023-04-17T09:13:17.352Z,11.02
2023-04-17T09:15:45.494Z,10.32
2023-04-17T09:18:30.921Z,11.32
2023-04-17T09:20:59.662Z,10.40
2023-04-17T09:23:27.637Z,10.27
2023-04-17T09:26:13.953Z,10.68
2023-04-17T09:28:41.450Z,11.40
2023-04-17T09:31:18.407Z,10.68
2023-04-17T09:33:58.628Z,9.88
2023-04-17T09:36:27.370Z,8.55
2023-04-17T09:38:55.008Z,10.50
2023-04-17T09:41:25.489Z,9.68
2023-04-17T09:43:54.781Z,10.77
2023-04-17T09:46:31.758Z,10.38
2023-04-17T09:49:10.684Z,10.70
2023-04-17T09:51:38.651Z,10.75
2023-04-17T09:54:10.005Z,10.35
2023-04-17T09:56:37.930Z,10.73
2023-04-17T09:59:05.861Z,9.20
2023-04-17T10:01:33.901Z,9.32
2023-04-17T10:04:01.955Z,11.18
2023-04-17T10:06:30.949Z,9.80
2023-04-17T10:08:58.460Z,10.02
2023-04-17T10:11:28.157Z,10.38
2023-04-17T10:14:04.561Z,10.95
2023-04-17T10:16:38.502Z,9.05
2023-04-17T10:19:25.070Z,9.35
2023-04-17T10:22:11.614Z,9.35
2023-04-17T10:24:39.042Z,9.35
2023-04-17T10:27:28.493Z,10.50
2023-04-17T10:29:57.070Z,10.23
2023-04-17T10:32:26.072Z,8.43
2023-04-17T10:34:54.142Z,10.40
2023-04-17T10:37:23.272Z,8.77
2023-04-17T10:39:51.655Z,8.68
2023-04-17T10:42:20.191Z,8.35
2023-04-17T10:44:47.867Z,9.50
2023-04-17T10:47:15.334Z,9.88
2023-04-17T10:49:51.772Z,10.48
2023-04-17T10:52:40.731Z,9.57
2023-04-17T10:55:09.397Z,7.93
2023-04-17T10:57:55.927Z,8.07
2023-04-17T11:00:38.927Z,10.65
2023-04-17T11:03:06.933Z,8.75
2023-04-17T11:05:35.783Z,8.65
2023-04-17T11:08:03.196Z,9.65
2023-04-17T11:10:30.900Z,8.52
2023-04-17T11:12:58.132Z,8.15
2023-04-17T11:15:32.044Z,9.65
2023-04-17T11:18:00.092Z,9.10
2023-04-17T11:20:28.396Z,8.93
2023-04-17T11:22:56.125Z,9.35
2023-04-17T11:25:24.605Z,10.98
2023-04-17T11:27:52.782Z,8.30
2023-04-17T11:30:27.507Z,9.63
2023-04-17T11:32:54.785Z,9.10
2023-04-17T11:35:24.830Z,8.77
2023-04-17T11:38:24.677Z,9.70
2023-04-17T11:40:51.866Z,7.28
2023-04-17T11:43:20.140Z,8.40
2023-04-17T11:45:48.405Z,9.80
2023-04-17T11:48:16.146Z,9.38
2023-04-17T11:50:44.729Z,8.32
2023-04-17T11:53:16.330Z,8.77
2023-04-17T11:55:44.075Z,9.25
2023-04-17T11:58:12.222Z,9.55
2023-04-17T12:00:40.644Z,8.73
2023-04-17T12:03:26.822Z,7.78
2023-04-17T12:06:04.387Z,9.82
2023-04-17T12:08:32.086Z,9.02
2023-04-17T12:10:59.303Z,8.63
2023-04-17T12:13:26.688Z,8.35
2023-04-17T12:15:55.024Z,8.30
2023-04-17T12:18:22.106Z,8.55
2023-04-17T12:20:49.306Z,9.40
2023-04-17T12:23:16.509Z,8.40
2023-04-17T12:25:43.665Z,7.82
2023-04-17T12:28:10.824Z,9.13
2023-04-17T12:30:39.730Z,6.65
2023-04-17T12:33:07.134Z,7.70
2023-04-17T12:35:34.584Z,8.23
2023-04-17T12:38:01.889Z,7.50
2023-04-17T12:40:29.072Z,8.38
2023-04-17T12:42:56.416Z,7.60
2023-04-17T12:45:23.722Z,8.43
2023-04-17T12:47:51.004Z,7.85
2023-04-17T12:50:18.242Z,7.13
2023-04-17T12:52:45.460Z,7.40
2023-04-17T12:55:12.702Z,7.10
2023-04-17T12:57:41.456Z,7.18
2023-04-17T13:00:09.473Z,7.28
2023-04-17T13:02:37.321Z,7.65
2023-04-17T13:05:07.714Z,8.23
2023-04-17T13:07:34.905Z,7.55
2023-04-17T13:10:02.024Z,7.28
2023-04-17T13:12:29.165Z,7.03
2023-04-17T13:14:57.470Z,7.53
2023-04-17T13:17:25.306Z,8.20
2023-04-17T13:19:52.630Z,8.30
2023-04-17T13:22:20.561Z,8.25
2023-04-17T13:24:47.738Z,8.65
2023-04-17T13:27:14.971Z,8.35
2023-04-17T13:29:42.245Z,7.90
2023-04-17T13:32:10.307Z,7.85
2023-04-17T13:34:37.567Z,8.07
2023-04-17T13:37:04.899Z,9.13
2023-04-17T13:39:32.213Z,9.15
2023-04-17T13:41:59.380Z,8.38
2023-04-17T13:44:26.757Z,7.45
2023-04-17T13:46:54.000Z,7.03
2023-04-17T13:49:21.468Z,7.40
2023-04-17T13:51:48.745Z,8.98
2023-04-17T13:54:15.965Z,8.32
2023-04-17T13:56:43.442Z,8.02
2023-04-17T13:59:11.028Z,7.78
2023-04-17T14:01:38.680Z,7.97
2023-04-17T14:04:06.289Z,8.65
2023-04-17T14:06:34.772Z,8.82
2023-04-17T14:09:02.239Z,7.32
2023-04-17T14:11:29.525Z,7.72
2023-04-17T14:13:56.770Z,7.28
2023-04-17T14:16:24.171Z,7.40
2023-04-17T14:18:51.430Z,7.95
2023-04-17T14:21:18.735Z,7.97
2023-04-17T14:23:46.112Z,9.02
2023-04-17T14:26:13.556Z,8.07
2023-04-17T14:28:40.912Z,7.60
2023-04-17T14:31:08.194Z,8.70
2023-04-17T14:33:35.555Z,7.68
2023-04-17T14:36:04.494Z,7.82
2023-04-17T14:38:32.949Z,8.82
2023-04-17T14:41:00.256Z,7.80
2023-04-17T14:43:28.284Z,7.20
2023-04-17T14:45:56.075Z,8.50
2023-04-17T14:48:24.166Z,8.35
2023-04-17T14:50:51.784Z,9.70
2023-04-17T14:53:21.493Z,8.38
2023-04-17T14:55:49.135Z,8.98
2023-04-17T14:58:16.248Z,8.25
2023-04-17T15:00:43.436Z,9.55
2023-04-17T15:03:10.820Z,8.18
2023-04-17T15:05:38.093Z,9.73
2023-04-17T15:08:05.401Z,8.65
2023-04-17T15:10:44.149Z,7.45
2023-04-17T15:13:11.770Z,9.40
2023-04-17T15:15:40.014Z,9.55
2023-04-17T15:18:07.412Z,8.75
2023-04-17T15:20:36.386Z,8.40
2023-04-17T15:23:03.781Z,8.98
2023-04-17T15:25:31.079Z,8.48
2023-04-17T15:27:58.273Z,7.50
2023-04-17T15:30:25.588Z,7.80
2023-04-17T15:32:52.894Z,7.68
2023-04-17T15:35:20.259Z,7.15
2023-04-17T15:37:48.447Z,8.25
2023-04-17T15:40:16.506Z,8.43
2023-04-17T15:42:44.035Z,7.90
2023-04-17T15:45:11.409Z,8.23
2023-04-17T15:47:38.646Z,7.25
2023-04-17T15:50:10.716Z,6.80
2023-04-17T15:52:37.889Z,6.60
2023-04-17T15:55:06.119Z,7.25
2023-04-17T15:57:33.341Z,6.70
2023-04-17T16:00:02.723Z,7.47
2023-04-17T16:02:37.442Z,7.43
2023-04-17T16:05:05.012Z,7.30
2023-04-17T16:07:32.984Z,7.60
2023-04-17T16:10:00.289Z,6.80
2023-04-17T16:12:28.283Z,7.13
2023-04-17T16:14:55.544Z,7.07
2023-04-17T16:17:22.809Z,8.40
2023-04-17T16:19:50.714Z,7.82
2023-04-17T16:22:19.295Z,6.35
2023-04-17T16:24:46.613Z,7.45
2023-04-17T16:27:13.775Z,8.40
2023-04-17T16:29:41.091Z,6.75
2023-04-17T16:32:08.336Z,6.05
2023-04-17T16:34:35.506Z,5.47
2023-04-17T16:37:03.396Z,5.30
2023-04-17T16:39:30.499Z,5.97
2023-04-17T16:41:57.808Z,6.55
2023-04-17T16:44:28.212Z,5.93
2023-04-17T16:47:12.677Z,5.40
2023-04-17T16:49:41.577Z,6.00
2023-04-17T16:52:08.830Z,6.10
2023-04-17T16:54:36.026Z,5.63
2023-04-17T16:57:03.348Z,5.05
2023-04-17T16:59:30.746Z,5.75
2023-04-17T17:01:59.083Z,6.60
2023-04-17T17:04:27.523Z,5.45
2023-04-17T17:06:55.836Z,5.63
2023-04-17T17:09:22.984Z,5.38
2023-04-17T17:11:50.438Z,5.30
2023-04-17T17:14:17.531Z,4.97
2023-04-17T17:16:44.726Z,4.70
2023-04-17T17:19:12.394Z,5.07
2023-04-17T17:21:39.806Z,4.47
2023-04-17T17:24:07.105Z,5.05
2023-04-17T17:26:39.287Z,4.78
2023-04-17T17:29:13.290Z,4.47
2023-04-17T17:31:41.020Z,4.82
2023-04-17T17:34:22.434Z,5.18
2023-04-17T17:36:53.022Z,5.13
2023-04-17T17:39:21.731Z,4.43
2023-04-17T17:41:49.156Z,4.95
2023-04-17T17:44:16.431Z,4.78
2023-04-17T17:46:43.682Z,5.25
2023-04-17T17:49:10.811Z,4.38
2023-04-17T17:51:38.049Z,6.28
2023-04-17T17:54:05.279Z,4.35
2023-04-17T17:56:32.384Z,4.60
2023-04-17T17:58:59.520Z,4.88
2023-04-17T18:01:26.789Z,4.25
2023-04-17T18:03:54.359Z,5.07
2023-04-17T18:06:21.741Z,5.05
2023-04-17T18:08:49.019Z,4.50
2023-04-17T18:11:16.242Z,6.15
2023-04-17T18:13:43.410Z,4.70
2023-04-17T18:16:11.031Z,4.70
2023-04-17T18:18:38.843Z,6.10
2023-04-17T18:21:07.021Z,5.50
2023-04-17T18:23:34.502Z,5.70
2023-04-17T18:26:02.606Z,7.07
2023-04-17T18:28:29.778Z,6.70
2023-04-17T18:30:57.055Z,8.77
2023-04-17T18:33:24.587Z,8.38
2023-04-17T18:35:51.947Z,8.15
2023-04-17T18:38:19.157Z,8.40
2023-04-17T18:40:46.318Z,8.50
2023-04-17T18:43:13.453Z,9.20
2023-04-17T18:45:41.686Z,8.73
2023-04-17T18:48:09.103Z,8.23
2023-04-17T18:50:38.309Z,9.05
2023-04-17T18:53:05.520Z,8.38
2023-04-17T18:55:33.109Z,9.90
2023-04-17T18:58:00.286Z,8.73
2023-04-17T19:00:27.580Z,8.80
2023-04-17T19:02:54.918Z,9.82
2023-04-17T19:05:24.046Z,9.13
2023-04-17T19:07:51.843Z,9.18
2023-04-17T19:10:19.171Z,8.82
2023-04-17T19:12:46.892Z,9.77
2023-04-17T19:15:14.170Z,9.35
2023-04-17T19:17:41.404Z,9.27
2023-04-17T19:20:09.137Z,9.85
2023-04-17T19:22:36.284Z,10.27
2023-04-17T19:25:03.534Z,8.93
2023-04-17T19:27:30.765Z,8.95
2023-04-17T19:29:57.987Z,9.73
2023-04-17T19:32:25.629Z,10.70
2023-04-17T19:34:52.833Z,9.68
2023-04-17T19:37:20.093Z,9.70
2023-04-17T19:39:47.300Z,9.23
2023-04-17T19:42:14.445Z,10.20
2023-04-17T19:44:41.610Z,9.05
2023-04-17T19:47:08.870Z,10.05
2023-04-17T19:49:36.061Z,8.98
2023-04-17T19:52:03.322Z,8.55
2023-04-17T19:54:30.637Z,8.82
2023-04-17T19:56:57.773Z,9.63
2023-04-17T19:59:24.921Z,8.23
2023-04-17T20:01:52.533Z,9.27
2023-04-17T20:04:19.886Z,9.02
2023-04-17T20:06:47.425Z,9.25
2023-04-17T20:09:15.296Z,8.48
2023-04-17T20:11:42.711Z,8.38
2023-04-17T20:14:11.138Z,8.25
2023-04-17T20:16:38.435Z,8.43
2023-04-17T20:19:05.710Z,8.45
2023-04-17T20:21:32.887Z,8.48
2023-04-17T20:24:00.150Z,7.97
2023-04-17T20:26:27.377Z,8.52
2023-04-17T20:28:54.721Z,8.80
2023-04-17T20:31:22.008Z,7.88
2023-04-17T20:33:49.258Z,8.32
2023-04-17T20:36:16.636Z,8.40
2023-04-17T20:38:44.087Z,7.60
2023-04-17T20:41:11.235Z,8.40
2023-04-17T20:43:38.407Z,8.23
2023-04-17T20:46:07.876Z,7.78
2023-04-17T20:48:35.055Z,7.78
2023-04-17T20:51:05.269Z,7.35
2023-04-17T20:53:32.907Z,8.82
2023-04-17T20:56:00.257Z,7.90
2023-04-17T20:58:27.484Z,7.50
2023-04-17T21:01:01.088Z,7.72
2023-04-17T21:03:31.909Z,8.45
2023-04-17T21:05:59.780Z,8.15
2023-04-17T21:08:27.262Z,8.30
2023-04-17T21:10:54.621Z,8.23
2023-04-17T21:13:22.697Z,9.25
2023-04-17T21:15:49.947Z,9.82
2023-04-17T21:18:17.037Z,8.70
2023-04-17T21:20:44.238Z,8.93
2023-04-17T21:23:11.427Z,9.70
2023-04-17T21:25:38.732Z,8.65
2023-04-17T21:28:05.967Z,9.40
2023-04-17T21:30:33.149Z,8.20
2023-04-17T21:33:00.397Z,8.10
2023-04-17T21:35:27.774Z,9.95
2023-04-17T21:37:55.174Z,9.10
2023-04-17T21:40:22.410Z,8.52
2023-04-17T21:42:49.561Z,9.88
2023-04-17T21:45:16.699Z,10.27
2023-04-17T21:47:43.876Z,9.07
2023-04-17T21:50:11.188Z,8.15
2023-04-17T21:52:38.676Z,8.63
2023-04-17T21:55:07.747Z,9.73
2023-04-17T21:57:35.192Z,9.30
2023-04-17T22:00:03.068Z,9.43
2023-04-17T22:02:34.103Z,9.13
2023-04-17T22:05:01.334Z,9.98
2023-04-17T22:07:28.648Z,8.90
2023-04-17T22:09:56.507Z,10.20
2023-04-17T22:12:23.790Z,8.65
2023-04-17T22:14:50.976Z,8.93
2023-04-17T22:17:18.199Z,8.25
2023-04-17T22:19:45.358Z,9.48
2023-04-17T22:22:12.531Z,9.80
2023-04-17T22:24:39.750Z,9.68
2023-04-17T22:27:07.060Z,8.75
2023-04-17T22:29:34.541Z,8.15
2023-04-17T22:32:02.128Z,10.00
2023-04-17T22:34:29.435Z,9.27
2023-04-17T22:36:56.655Z,9.77
2023-04-17T22:39:23.899Z,7.82
2023-04-17T22:41:51.298Z,10.05
2023-04-17T22:44:18.530Z,9.70
2023-04-17T22:46:45.840Z,9.63
2023-04-17T22:49:14.194Z,9.18
2023-04-17T22:51:41.441Z,8.52
2023-04-17T22:54:21.549Z,10.45
2023-04-17T22:56:50.255Z,9.25
2023-04-17T22:59:17.465Z,10.43
2023-04-17T23:01:44.771Z,8.82
2023-04-17T23:04:12.222Z,10.23
2023-04-17T23:06:39.687Z,10.48
2023-04-17T23:09:06.833Z,9.93
2023-04-17T23:11:34.380Z,10.35
2023-04-17T23:14:02.688Z,9.98
2023-04-17T23:16:30.562Z,9.25
2023-04-17T23:18:57.886Z,9.45
2023-04-17T23:21:26.079Z,9.15
2023-04-17T23:23:53.285Z,11.52
2023-04-17T23:26:20.807Z,10.30
2023-04-17T23:28:48.079Z,10.85
2023-04-17T23:31:15.355Z,11.40
2023-04-17T23:33:42.574Z,10.07
2023-04-17T23:36:09.738Z,10.20
2023-04-17T23:38:36.994Z,10.60
2023-04-17T23:41:04.204Z,10.23
2023-04-17T23:43:31.449Z,12.27
2023-04-17T23:46:00.356Z,11.02
2023-04-17T23:48:28.075Z,9.57
2023-04-17T23:50:55.620Z,10.77
2023-04-17T23:53:22.855Z,9.95
2023-04-17T23:55:50.171Z,10.82
2023-04-17T23:58:17.406Z,10.68
